createdAt,value
2023-01-29T00:01:23.490Z,11.07
2023-01-29T00:03:53.406Z,10.63
2023-01-29T00:06:20.416Z,9.85
2023-01-29T00:08:47.420Z,9.68
2023-01-29T00:11:14.433Z,9.23
2023-01-29T00:13:41.191Z,9.88
2023-01-29T00:16:08.441Z,10.87
2023-01-29T00:18:41.737Z,9.27
2023-01-29T00:21:13.558Z,9.30
2023-01-29T00:23:40.327Z,9.30
2023-01-29T00:26:07.663Z,8.85
2023-01-29T00:28:35.044Z,9.87
2023-01-29T00:31:15.907Z,9.20
2023-01-29T00:33:43.861Z,9.20
2023-01-29T00:36:12.700Z,10.05
2023-01-29T00:38:39.619Z,9.85
2023-01-29T00:41:29.664Z,9.70
2023-01-29T00:44:15.397Z,8.93
2023-01-29T00:46:42.407Z,9.80
2023-01-29T00:49:09.977Z,10.07
2023-01-29T00:51:38.017Z,9.93
2023-01-29T00:54:06.822Z,10.40
2023-01-29T00:56:37.497Z,9.88
2023-01-29T00:59:04.661Z,10.60
2023-01-29T01:01:49.894Z,9.98
2023-01-29T01:04:16.738Z,10.10
2023-01-29T01:06:43.787Z,9.97
2023-01-29T01:09:29.881Z,10.23
2023-01-29T01:11:56.670Z,11.18
2023-01-29T01:14:23.487Z,10.20
2023-01-29T01:16:50.286Z,9.80
2023-01-29T01:19:17.815Z,9.73
2023-01-29T01:21:47.048Z,10.60
2023-01-29T01:24:14.615Z,10.90
2023-01-29T01:26:41.650Z,10.95
2023-01-29T01:29:09.204Z,11.30
2023-01-29T01:31:36.049Z,12.90
2023-01-29T01:34:03.015Z,13.13
2023-01-29T01:36:31.447Z,12.93
2023-01-29T01:38:58.928Z,10.98
2023-01-29T01:41:26.005Z,10.82
2023-01-29T01:43:58.672Z,12.13
2023-01-29T01:46:29.734Z,10.93
2023-01-29T01:49:05.827Z,10.65
2023-01-29T01:51:35.633Z,11.70
2023-01-29T01:54:08.284Z,11.32
2023-01-29T01:56:40.854Z,9.83
2023-01-29T01:59:12.056Z,10.48
2023-01-29T02:01:42.814Z,10.50
2023-01-29T02:04:32.525Z,9.95
2023-01-29T02:07:21.691Z,10.65
2023-01-29T02:09:53.232Z,10.23
2023-01-29T02:12:21.995Z,11.13
2023-01-29T02:14:51.384Z,10.98
2023-01-29T02:17:19.842Z,11.55
2023-01-29T02:20:26.593Z,10.02
2023-01-29T02:22:55.410Z,9.90
2023-01-29T02:25:59.303Z,9.90
2023-01-29T02:28:37.909Z,9.25
2023-01-29T02:31:21.877Z,10.65
2023-01-29T02:33:48.740Z,10.23
2023-01-29T02:36:31.955Z,10.00
2023-01-29T02:39:02.278Z,9.52
2023-01-29T02:41:50.220Z,9.88
2023-01-29T02:45:02.044Z,9.20
2023-01-29T02:47:55.882Z,10.00
2023-01-29T02:50:49.259Z,9.90
2023-01-29T02:53:25.829Z,10.10
2023-01-29T02:56:00.555Z,10.18
2023-01-29T02:58:43.316Z,10.48
2023-01-29T03:01:16.869Z,11.35
2023-01-29T03:03:47.871Z,10.07
2023-01-29T03:06:28.291Z,11.07
2023-01-29T03:09:07.138Z,10.60
2023-01-29T03:11:55.575Z,11.00
2023-01-29T03:14:53.516Z,11.23
2023-01-29T03:17:26.800Z,10.37
2023-01-29T03:19:54.321Z,10.85
2023-01-29T03:22:23.703Z,10.85
2023-01-29T03:25:19.514Z,10.13
2023-01-29T03:28:12.194Z,11.73
2023-01-29T03:31:07.498Z,11.13
2023-01-29T03:33:51.687Z,11.27
2023-01-29T03:36:45.240Z,10.70
2023-01-29T03:39:14.912Z,10.38
2023-01-29T03:41:57.839Z,10.43
2023-01-29T03:44:53.340Z,10.90
2023-01-29T03:47:50.440Z,10.23
2023-01-29T03:50:47.013Z,11.70
2023-01-29T03:53:30.688Z,10.60
2023-01-29T03:56:13.723Z,9.98
2023-01-29T03:59:11.201Z,10.70
2023-01-29T04:02:04.992Z,12.30
2023-01-29T04:04:34.210Z,14.35
2023-01-29T04:07:23.841Z,12.43
2023-01-29T04:10:07.997Z,13.45
2023-01-29T04:12:42.113Z,12.43
2023-01-29T04:15:15.357Z,11.02
2023-01-29T04:17:48.101Z,11.98
2023-01-29T04:20:22.220Z,11.25
2023-01-29T04:22:51.327Z,10.55
2023-01-29T04:25:28.945Z,11.40
2023-01-29T04:28:13.818Z,11.80
2023-01-29T04:30:53.557Z,10.40
2023-01-29T04:33:40.113Z,10.70
2023-01-29T04:36:34.007Z,10.32
2023-01-29T04:39:21.133Z,10.13
2023-01-29T04:42:07.328Z,10.43
2023-01-29T04:44:40.225Z,10.75
2023-01-29T04:47:40.661Z,10.90
2023-01-29T04:50:34.948Z,10.65
2023-01-29T04:53:23.964Z,10.00
2023-01-29T04:56:14.830Z,9.80
2023-01-29T04:58:49.222Z,10.02
2023-01-29T05:01:19.409Z,10.48
2023-01-29T05:03:51.087Z,9.90
2023-01-29T05:06:18.946Z,11.57
2023-01-29T05:08:47.552Z,10.25
2023-01-29T05:11:14.551Z,11.50
2023-01-29T05:13:43.001Z,10.98
2023-01-29T05:16:15.808Z,11.10
2023-01-29T05:18:42.969Z,10.20
2023-01-29T05:21:10.305Z,11.20
2023-01-29T05:23:37.085Z,11.30
2023-01-29T05:26:04.477Z,10.90
2023-01-29T05:28:31.623Z,11.73
2023-01-29T05:30:58.742Z,11.50
2023-01-29T05:33:30.911Z,10.63
2023-01-29T05:35:59.789Z,11.52
2023-01-29T05:38:26.723Z,11.02
2023-01-29T05:40:54.495Z,11.35
2023-01-29T05:43:23.678Z,12.50
2023-01-29T05:46:00.867Z,11.88
2023-01-29T05:48:29.286Z,11.48
2023-01-29T05:51:04.561Z,12.95
2023-01-29T05:53:32.410Z,13.00
2023-01-29T05:56:02.474Z,11.40
2023-01-29T05:58:34.956Z,11.55
2023-01-29T06:01:15.409Z,11.27
2023-01-29T06:03:42.395Z,11.45
2023-01-29T06:06:09.379Z,11.38
2023-01-29T06:08:36.687Z,12.33
2023-01-29T06:11:04.230Z,12.70
2023-01-29T06:13:30.992Z,11.93
2023-01-29T06:15:57.883Z,10.45
2023-01-29T06:18:24.793Z,12.15
2023-01-29T06:20:51.591Z,11.43
2023-01-29T06:23:18.454Z,11.85
2023-01-29T06:25:45.269Z,11.45
2023-01-29T06:28:12.162Z,12.43
2023-01-29T06:30:38.926Z,12.52
2023-01-29T06:33:05.793Z,12.80
2023-01-29T06:35:32.619Z,12.32
2023-01-29T06:37:59.375Z,12.38
2023-01-29T06:40:26.156Z,13.65
2023-01-29T06:42:52.950Z,13.55
2023-01-29T06:45:19.811Z,12.80
2023-01-29T06:47:46.748Z,13.27
2023-01-29T06:50:13.655Z,13.45
2023-01-29T06:52:40.542Z,14.10
2023-01-29T06:55:07.836Z,14.45
2023-01-29T06:57:34.677Z,14.37
2023-01-29T07:00:01.517Z,13.70
2023-01-29T07:02:28.585Z,13.32
2023-01-29T07:04:55.373Z,14.00
2023-01-29T07:07:22.135Z,13.75
2023-01-29T07:09:48.859Z,13.93
2023-01-29T07:12:15.614Z,13.63
2023-01-29T07:14:42.462Z,13.50
2023-01-29T07:17:09.284Z,13.85
2023-01-29T07:19:36.146Z,14.52
2023-01-29T07:22:03.943Z,14.23
2023-01-29T07:24:30.910Z,14.70
2023-01-29T07:26:57.867Z,14.05
2023-01-29T07:29:24.705Z,12.88
2023-01-29T07:31:51.542Z,12.88
2023-01-29T07:34:18.544Z,13.07
2023-01-29T07:36:45.464Z,12.80
2023-01-29T07:39:12.342Z,11.88
2023-01-29T07:41:39.185Z,10.98
2023-01-29T07:44:15.428Z,10.80
2023-01-29T07:46:42.384Z,9.90
2023-01-29T07:49:09.179Z,10.32
2023-01-29T07:51:35.952Z,9.93
2023-01-29T07:54:02.768Z,10.43
2023-01-29T07:56:29.600Z,11.43
2023-01-29T07:58:56.433Z,9.93
2023-01-29T08:01:23.279Z,9.85
2023-01-29T08:03:51.398Z,9.95
2023-01-29T08:06:18.343Z,9.48
2023-01-29T08:08:45.139Z,9.60
2023-01-29T08:11:11.902Z,10.20
2023-01-29T08:13:38.796Z,9.85
2023-01-29T08:16:06.228Z,10.95
2023-01-29T08:18:33.038Z,9.38
2023-01-29T08:21:01.223Z,9.27
2023-01-29T08:23:28.066Z,9.67
2023-01-29T08:25:55.024Z,8.82
2023-01-29T08:28:22.141Z,10.00
2023-01-29T08:30:49.043Z,9.75
2023-01-29T08:33:17.540Z,8.57
2023-01-29T08:35:49.192Z,8.83
2023-01-29T08:38:15.955Z,9.48
2023-01-29T08:40:42.728Z,10.40
2023-01-29T08:43:12.279Z,9.18
2023-01-29T08:45:41.971Z,9.02
2023-01-29T08:48:09.619Z,10.20
2023-01-29T08:50:36.817Z,9.38
2023-01-29T08:53:07.894Z,9.63
2023-01-29T08:55:39.696Z,10.00
2023-01-29T08:58:08.028Z,10.07
2023-01-29T09:00:35.641Z,10.27
2023-01-29T09:03:03.799Z,9.68
2023-01-29T09:05:30.691Z,9.32
2023-01-29T09:07:58.071Z,9.38
2023-01-29T09:10:25.793Z,9.63
2023-01-29T09:12:52.631Z,10.80
2023-01-29T09:15:19.762Z,7.72
2023-01-29T09:17:46.978Z,9.52
2023-01-29T09:20:13.783Z,10.10
2023-01-29T09:22:40.636Z,10.63
2023-01-29T09:25:07.903Z,9.27
2023-01-29T09:27:34.696Z,9.75
2023-01-29T09:30:01.455Z,9.82
2023-01-29T09:35:17.531Z,9.27
2023-01-29T09:37:48.078Z,10.07
2023-01-29T09:40:24.764Z,8.43
2023-01-29T09:42:57.840Z,8.57
2023-01-29T09:45:28.122Z,9.25
2023-01-29T09:48:02.229Z,9.60
2023-01-29T09:50:41.808Z,6.43
2023-01-29T09:53:35.299Z,8.68
2023-01-29T09:56:23.696Z,8.77
2023-01-29T09:58:50.542Z,7.82
2023-01-29T10:01:38.276Z,8.35
2023-01-29T10:04:21.143Z,7.40
2023-01-29T10:06:56.767Z,8.70
2023-01-29T10:09:48.300Z,7.93
2023-01-29T10:12:31.095Z,8.90
2023-01-29T10:15:09.477Z,9.27
2023-01-29T10:18:02.426Z,9.30
2023-01-29T10:20:47.610Z,7.95
2023-01-29T10:23:34.842Z,8.30
2023-01-29T10:26:01.920Z,8.63
2023-01-29T10:28:43.413Z,8.13
2023-01-29T10:31:17.701Z,8.13
2023-01-29T10:34:12.579Z,8.52
2023-01-29T10:36:45.909Z,8.02
2023-01-29T10:39:21.081Z,7.97
2023-01-29T10:41:54.094Z,7.35
2023-01-29T10:44:30.053Z,7.95
2023-01-29T10:47:21.092Z,8.02
2023-01-29T10:49:58.779Z,7.35
2023-01-29T10:52:35.279Z,8.30
2023-01-29T10:55:14.569Z,7.68
2023-01-29T10:57:57.533Z,7.70
2023-01-29T11:00:48.658Z,6.63
2023-01-29T11:03:26.960Z,7.40
2023-01-29T11:06:21.744Z,7.57
2023-01-29T11:08:56.296Z,7.10
2023-01-29T11:11:56.261Z,5.80
2023-01-29T11:14:37.785Z,6.30
2023-01-29T11:17:04.726Z,7.03
2023-01-29T11:19:44.743Z,7.05
2023-01-29T11:22:20.297Z,7.80
2023-01-29T11:25:07.369Z,7.00
2023-01-29T11:27:43.399Z,7.72
2023-01-29T11:30:23.353Z,7.78
2023-01-29T11:32:56.326Z,7.82
2023-01-29T11:35:25.626Z,7.13
2023-01-29T11:37:52.971Z,7.13
2023-01-29T11:40:19.895Z,6.85
2023-01-29T11:42:47.829Z,7.15
2023-01-29T11:45:20.440Z,7.22
2023-01-29T11:47:54.143Z,7.22
2023-01-29T11:50:25.192Z,7.18
2023-01-29T11:52:52.211Z,6.88
2023-01-29T11:55:20.793Z,6.72
2023-01-29T11:57:54.413Z,7.70
2023-01-29T12:00:33.041Z,7.32
2023-01-29T12:03:15.005Z,6.57
2023-01-29T12:05:54.609Z,6.93
2023-01-29T12:08:23.561Z,6.55
2023-01-29T12:10:50.667Z,6.10
2023-01-29T12:13:28.091Z,5.65
2023-01-29T12:16:43.429Z,6.13
2023-01-29T12:19:34.020Z,5.55
2023-01-29T12:22:06.927Z,5.75
2023-01-29T12:24:42.406Z,6.05
2023-01-29T12:27:24.072Z,6.65
2023-01-29T12:30:04.166Z,5.70
2023-01-29T12:32:59.912Z,6.45
2023-01-29T12:36:21.959Z,6.55
2023-01-29T12:38:48.915Z,6.82
2023-01-29T12:41:28.931Z,7.07
2023-01-29T12:44:02.657Z,7.35
2023-01-29T12:46:37.333Z,6.18
2023-01-29T12:49:12.763Z,6.07
2023-01-29T12:51:48.985Z,6.38
2023-01-29T12:54:21.194Z,7.50
2023-01-29T12:56:56.103Z,7.03
2023-01-29T12:59:31.466Z,6.72
2023-01-29T13:02:21.951Z,6.72
2023-01-29T13:04:57.904Z,6.82
2023-01-29T13:07:40.179Z,6.95
2023-01-29T13:10:16.918Z,6.43
2023-01-29T13:12:57.466Z,6.43
2023-01-29T13:15:35.838Z,6.38
2023-01-29T13:18:08.618Z,6.22
2023-01-29T13:20:35.634Z,6.80
2023-01-29T13:23:17.416Z,6.90
2023-01-29T13:25:44.307Z,6.35
2023-01-29T13:28:23.526Z,6.53
2023-01-29T13:31:14.230Z,6.50
2023-01-29T13:33:43.111Z,6.55
2023-01-29T13:36:21.688Z,5.93
2023-01-29T13:39:07.910Z,6.50
2023-01-29T13:41:39.909Z,6.30
2023-01-29T13:44:18.487Z,6.60
2023-01-29T13:46:51.981Z,5.70
2023-01-29T13:49:42.685Z,6.22
2023-01-29T13:52:15.539Z,6.60
2023-01-29T13:54:52.854Z,6.30
2023-01-29T13:57:44.830Z,6.40
2023-01-29T14:00:34.651Z,6.40
2023-01-29T14:03:01.343Z,6.63
2023-01-29T14:05:31.292Z,6.60
2023-01-29T14:08:39.443Z,6.05
2023-01-29T14:11:15.370Z,6.63
2023-01-29T14:13:46.698Z,6.55
2023-01-29T14:16:13.504Z,6.93
2023-01-29T14:19:02.772Z,6.55
2023-01-29T14:21:32.491Z,7.05
2023-01-29T14:24:20.982Z,6.95
2023-01-29T14:26:53.985Z,6.38
2023-01-29T14:29:34.211Z,6.47
2023-01-29T14:32:12.296Z,6.85
2023-01-29T14:34:49.405Z,6.72
2023-01-29T14:37:16.155Z,7.07
2023-01-29T14:39:42.917Z,7.28
2023-01-29T14:42:27.053Z,6.40
2023-01-29T14:45:21.849Z,7.28
2023-01-29T14:47:48.585Z,7.55
2023-01-29T14:50:31.962Z,7.05
2023-01-29T14:53:13.828Z,7.47
2023-01-29T14:55:48.055Z,6.93
2023-01-29T14:58:19.906Z,7.22
2023-01-29T15:00:51.838Z,7.32
2023-01-29T15:03:29.011Z,8.13
2023-01-29T15:05:59.062Z,7.60
2023-01-29T15:08:49.731Z,11.70
2023-01-29T15:11:36.568Z,11.75
2023-01-29T15:14:06.900Z,11.02
2023-01-29T15:16:59.399Z,8.68
2023-01-29T15:19:53.099Z,15.43
2023-01-29T15:22:22.057Z,11.13
2023-01-29T15:25:04.457Z,11.98
2023-01-29T15:27:31.868Z,10.18
2023-01-29T15:30:04.442Z,12.80
2023-01-29T15:32:39.434Z,15.00
2023-01-29T15:35:10.862Z,11.70
2023-01-29T15:37:38.457Z,12.40
2023-01-29T15:40:14.662Z,11.63
2023-01-29T15:42:48.753Z,9.38
2023-01-29T15:45:41.922Z,13.20
2023-01-29T15:48:18.142Z,10.57
2023-01-29T15:50:45.582Z,9.82
2023-01-29T15:53:21.877Z,14.23
2023-01-29T15:55:51.583Z,11.27
2023-01-29T15:58:24.257Z,10.43
2023-01-29T16:00:56.677Z,11.20
2023-01-29T16:03:25.462Z,10.02
2023-01-29T16:05:52.770Z,9.40
2023-01-29T16:08:21.829Z,8.82
2023-01-29T16:10:53.735Z,10.35
2023-01-29T16:13:29.992Z,8.17
2023-01-29T16:15:59.973Z,10.75
2023-01-29T16:18:36.480Z,10.02
2023-01-29T16:21:09.348Z,9.13
2023-01-29T16:23:41.929Z,7.57
2023-01-29T16:26:16.561Z,9.23
2023-01-29T16:28:45.343Z,8.05
2023-01-29T16:31:20.846Z,8.05
2023-01-29T16:33:49.579Z,9.00
2023-01-29T16:36:18.303Z,8.00
2023-01-29T16:38:54.223Z,8.13
2023-01-29T16:41:20.977Z,8.38
2023-01-29T16:43:59.378Z,10.13
2023-01-29T16:46:34.340Z,10.20
2023-01-29T16:49:01.918Z,11.43
2023-01-29T16:51:37.916Z,8.67
2023-01-29T16:54:12.638Z,9.75
2023-01-29T16:56:40.000Z,9.27
2023-01-29T16:59:07.214Z,9.85
2023-01-29T17:01:36.444Z,8.60
2023-01-29T17:04:15.884Z,8.70
2023-01-29T17:06:46.389Z,8.23
2023-01-29T17:09:27.362Z,9.05
2023-01-29T17:12:01.004Z,9.30
2023-01-29T17:14:31.981Z,9.45
2023-01-29T17:17:06.770Z,9.30
2023-01-29T17:19:34.022Z,10.05
2023-01-29T17:22:04.853Z,12.77
2023-01-29T17:24:32.358Z,13.48
2023-01-29T17:27:00.593Z,17.00
2023-01-29T17:29:30.761Z,16.13
2023-01-29T17:32:00.151Z,15.60
2023-01-29T17:34:27.297Z,12.00
2023-01-29T17:36:54.108Z,13.15
2023-01-29T17:39:22.723Z,14.45
2023-01-29T17:41:54.536Z,16.37
2023-01-29T17:44:21.835Z,11.27
2023-01-29T17:46:48.689Z,10.13
2023-01-29T17:49:23.454Z,9.50
2023-01-29T17:51:51.239Z,9.55
2023-01-29T17:54:18.179Z,9.43
2023-01-29T17:56:45.072Z,10.02
2023-01-29T17:59:23.424Z,9.25
2023-01-29T18:01:51.236Z,8.75
2023-01-29T18:04:18.304Z,8.50
2023-01-29T18:06:48.124Z,7.90
2023-01-29T18:09:16.957Z,8.93
2023-01-29T18:11:43.734Z,9.05
2023-01-29T18:14:14.132Z,9.40
2023-01-29T18:16:43.389Z,10.85
2023-01-29T18:19:14.807Z,10.07
2023-01-29T18:21:41.675Z,12.48
2023-01-29T18:24:08.699Z,11.48
2023-01-29T18:26:38.022Z,9.60
2023-01-29T18:29:05.290Z,10.00
2023-01-29T18:31:32.253Z,9.57
2023-01-29T18:33:59.287Z,10.63
2023-01-29T18:36:26.168Z,11.23
2023-01-29T18:38:52.979Z,9.55
2023-01-29T18:41:19.862Z,10.13
2023-01-29T18:43:46.634Z,9.67
2023-01-29T18:46:13.619Z,9.82
2023-01-29T18:48:42.368Z,9.82
2023-01-29T18:51:09.726Z,11.32
2023-01-29T18:53:36.484Z,11.90
2023-01-29T18:56:05.425Z,10.20
2023-01-29T18:58:36.184Z,9.57
2023-01-29T19:01:09.828Z,12.57
2023-01-29T19:03:40.628Z,11.65
2023-01-29T19:06:09.697Z,13.90
2023-01-29T19:08:36.769Z,9.93
2023-01-29T19:11:05.608Z,10.35
2023-01-29T19:13:33.041Z,10.38
2023-01-29T19:16:00.142Z,13.07
2023-01-29T19:18:28.079Z,10.65
2023-01-29T19:20:55.233Z,10.90
2023-01-29T19:23:22.472Z,10.50
2023-01-29T19:25:49.266Z,10.48
2023-01-29T19:28:16.062Z,11.43
2023-01-29T19:30:43.010Z,10.73
2023-01-29T19:33:10.581Z,10.53
2023-01-29T19:35:37.460Z,11.45
2023-01-29T19:38:04.787Z,10.85
2023-01-29T19:40:31.665Z,9.95
2023-01-29T19:42:58.694Z,9.25
2023-01-29T19:45:49.244Z,10.93
2023-01-29T19:48:21.675Z,10.45
2023-01-29T19:50:56.219Z,9.20
2023-01-29T19:53:23.523Z,9.43
2023-01-29T19:55:59.149Z,10.07
2023-01-29T19:58:26.350Z,9.10
2023-01-29T20:00:57.849Z,9.50
2023-01-29T20:03:25.613Z,9.80
2023-01-29T20:05:52.582Z,10.00
2023-01-29T20:08:19.569Z,10.07
2023-01-29T20:10:47.635Z,10.33
2023-01-29T20:13:16.051Z,10.43
2023-01-29T20:15:47.499Z,10.93
2023-01-29T20:18:15.416Z,9.95
2023-01-29T20:20:43.667Z,11.55
2023-01-29T20:23:11.542Z,11.33
2023-01-29T20:25:38.772Z,11.57
2023-01-29T20:28:10.268Z,11.43
2023-01-29T20:30:37.362Z,10.68
2023-01-29T20:33:05.383Z,11.18
2023-01-29T20:35:33.971Z,10.97
2023-01-29T20:38:01.415Z,11.80
2023-01-29T20:40:28.337Z,10.45
2023-01-29T20:42:55.151Z,11.38
2023-01-29T20:45:22.597Z,9.93
2023-01-29T20:47:49.824Z,11.03
2023-01-29T20:50:18.872Z,10.50
2023-01-29T20:52:46.271Z,10.88
2023-01-29T20:55:13.325Z,10.32
2023-01-29T20:57:40.336Z,9.85
2023-01-29T21:00:08.572Z,9.77
2023-01-29T21:02:35.380Z,10.50
2023-01-29T21:05:02.112Z,10.25
2023-01-29T21:07:28.982Z,10.68
2023-01-29T21:09:55.711Z,10.38
2023-01-29T21:12:22.543Z,10.33
2023-01-29T21:14:49.367Z,6.63
2023-01-29T21:17:16.262Z,10.82
2023-01-29T21:19:44.024Z,10.82
2023-01-29T21:22:10.780Z,9.60
2023-01-29T21:24:37.531Z,10.50
2023-01-29T21:27:04.383Z,10.15
2023-01-29T21:29:31.190Z,10.13
2023-01-29T21:31:58.021Z,10.48
2023-01-29T21:34:25.507Z,10.95
2023-01-29T21:36:52.270Z,9.20
2023-01-29T21:39:20.959Z,10.00
2023-01-29T21:42:08.256Z,9.43
2023-01-29T21:44:35.391Z,10.10
2023-01-29T21:47:12.306Z,10.98
2023-01-29T21:49:41.178Z,9.60
2023-01-29T21:52:08.711Z,11.70
2023-01-29T21:54:35.648Z,10.10
2023-01-29T21:57:07.547Z,10.48
2023-01-29T21:59:35.148Z,10.98
2023-01-29T22:02:02.304Z,11.73
2023-01-29T22:04:29.249Z,8.05
2023-01-29T22:06:56.061Z,10.77
2023-01-29T22:09:22.881Z,11.38
2023-01-29T22:11:49.731Z,9.70
2023-01-29T22:14:18.571Z,10.90
2023-01-29T22:16:46.051Z,10.02
2023-01-29T22:19:13.638Z,10.77
2023-01-29T22:21:40.625Z,12.60
2023-01-29T22:24:07.709Z,11.10
2023-01-29T22:26:35.791Z,10.53
2023-01-29T22:29:02.858Z,9.68
2023-01-29T22:31:29.752Z,10.48
2023-01-29T22:33:56.803Z,10.13
2023-01-29T22:36:23.696Z,10.27
2023-01-29T22:38:50.514Z,10.63
2023-01-29T22:41:17.457Z,10.60
2023-01-29T22:43:44.184Z,10.93
2023-01-29T22:46:12.232Z,9.88
2023-01-29T22:48:39.007Z,10.68
2023-01-29T22:51:12.090Z,10.03
2023-01-29T22:53:41.023Z,9.55
2023-01-29T22:56:08.670Z,10.63
2023-01-29T22:58:35.639Z,10.48
2023-01-29T23:01:03.067Z,11.48
2023-01-29T23:03:29.981Z,10.50
2023-01-29T23:05:56.734Z,11.63
2023-01-29T23:08:23.573Z,11.20
2023-01-29T23:10:50.412Z,10.75
2023-01-29T23:13:17.201Z,10.40
2023-01-29T23:15:44.074Z,12.10
2023-01-29T23:18:11.093Z,9.80
2023-01-29T23:20:37.843Z,11.25
2023-01-29T23:23:04.682Z,8.07
2023-01-29T23:25:49.878Z,10.32
2023-01-29T23:28:16.636Z,11.73
2023-01-29T23:30:45.215Z,11.50
2023-01-29T23:33:12.353Z,10.30
2023-01-29T23:35:39.398Z,12.07
2023-01-29T23:38:06.145Z,11.35
2023-01-29T23:40:32.942Z,9.73
2023-01-29T23:42:59.746Z,11.90
2023-01-29T23:45:26.677Z,11.48
2023-01-29T23:47:53.451Z,11.50
2023-01-29T23:50:20.330Z,10.13
2023-01-29T23:52:47.163Z,12.27
2023-01-29T23:55:13.948Z,11.73
2023-01-29T23:57:40.784Z,11.90
